»·PEaware :: N117SB KSNA-KPSP

N117SB :: KSNA-KPSP

FLIGHT INFORMATION

Flight Status: Arrived
Operator: Privately registered:
United States
More flights under this callsign
Pilot: Dean S. (16265)
Aircraft: DIAMOND DA-42 TWINSTAR
(DA42)
More flights by this aircraft type
Origin: KSNA John Wayne-Orange Co
United States
Destination: KPSP Palm Springs Intl
United States
More flights between these airports :: More routes between these airports
Route: +
File this flight plan on PilotEdge
Remarks:
Altitude:
(Current/Filed)
0ft
Speed:
(Current/Filed)
0kts
Departed: 16-Dec-17 05:43 PM
Arrived: 16-Dec-17 06:21 PM
Distance/Time
Traveled:
68nm/0:37
Distance/Time
To Go:
Arrived

Flight Plot

Page will automatically refresh every two minutes.


Map Options




Map Legend


Flown Route
Filed Route
Departure Airport
Arrival Airport
Navaid (VOR, NDB)
Fix

Horizontal Profiles

Position Reports

Time Latitude Longitude Heading Altitude Ground
Speed
16-Dec-17 17:41 33.671684 -117.867007 302 59ft 0kts
16-Dec-17 17:42 33.671686 -117.867010 302 59ft 0kts
16-Dec-17 17:43 33.671687 -117.867014 302 59ft 0kts
16-Dec-17 17:44 33.672060 -117.867534 329 59ft 10kts
16-Dec-17 17:45 33.674398 -117.866887 24 59ft 12kts
16-Dec-17 17:46 33.677676 -117.864862 27 59ft 8kts
16-Dec-17 17:47 33.679938 -117.863652 296 59ft 0kts
16-Dec-17 17:48 33.679938 -117.863653 296 59ft 0kts
16-Dec-17 17:49 33.674777 -117.867690 209 59ft 77kts
16-Dec-17 17:50 33.656629 -117.874612 135 1042ft 87kts
16-Dec-17 17:51 33.653939 -117.841148 92 2550ft 90kts
16-Dec-17 17:52 33.652613 -117.807451 92 2747ft 149kts
16-Dec-17 17:53 33.660477 -117.748441 62 2889ft 151kts
16-Dec-17 17:54 33.674614 -117.714407 63 3762ft 130kts
16-Dec-17 17:55 33.687753 -117.666517 81 4826ft 130kts
16-Dec-17 17:56 33.690778 -117.630078 85 5583ft 132kts
16-Dec-17 17:57 33.693634 -117.585871 85 6483ft 133kts
16-Dec-17 17:58 33.696438 -117.541094 85 7367ft 136kts
16-Dec-17 17:59 33.699612 -117.490072 85 7500ft 165kts
16-Dec-17 18:00 33.703081 -117.433917 85 7497ft 170kts
16-Dec-17 18:01 33.706570 -117.376940 85 7497ft 170kts
16-Dec-17 18:02 33.710022 -117.320090 85 7497ft 171kts
16-Dec-17 18:03 33.713450 -117.263211 85 7497ft 171kts
16-Dec-17 18:04 33.716859 -117.206187 85 7502ft 170kts
16-Dec-17 18:05 33.737495 -117.156031 55 7503ft 171kts
16-Dec-17 18:06 33.763112 -117.107776 58 7504ft 171kts
16-Dec-17 18:07 33.787929 -117.059139 58 7507ft 170kts
16-Dec-17 18:08 33.812635 -117.010421 58 7512ft 170kts
16-Dec-17 18:09 33.837069 -116.962152 58 7510ft 160kts
16-Dec-17 18:10 33.860313 -116.916164 58 6883ft 164kts
16-Dec-17 18:11 33.884256 -116.868736 58 6084ft 165kts
16-Dec-17 18:12 33.907681 -116.822259 58 5533ft 150kts
16-Dec-17 18:13 33.927366 -116.783114 58 5530ft 130kts
16-Dec-17 18:14 33.944904 -116.745875 84 5525ft 126kts
16-Dec-17 18:15 33.933656 -116.711095 119 5511ft 98kts
16-Dec-17 18:16 33.921584 -116.683637 101 5450ft 98kts
16-Dec-17 18:17 33.922414 -116.646522 85 4592ft 111kts
16-Dec-17 18:18 33.915519 -116.611549 106 3802ft 102kts
16-Dec-17 18:19 33.910659 -116.582513 100 3877ft 83kts
16-Dec-17 18:20 33.904831 -116.551783 105 3565ft 101kts
16-Dec-17 18:21 33.892518 -116.523176 128 3169ft 96kts
16-Dec-17 18:22 33.874400 -116.498763 138 2407ft 99kts
16-Dec-17 18:23 33.852050 -116.482579 154 1863ft 88kts
16-Dec-17 18:24 33.829988 -116.472084 161 1559ft 83kts
16-Dec-17 18:25 33.808056 -116.472777 228 1117ft 94kts
16-Dec-17 18:26 33.816266 -116.495682 320 612ft 80kts
16-Dec-17 18:27 33.827900 -116.506076 323 428ft 26kts
16-Dec-17 18:28 33.828098 -116.507047 181 428ft 0kts
16-Dec-17 18:29 33.824960 -116.507186 165 428ft 13kts
16-Dec-17 18:30 33.823356 -116.507120 179 428ft 0kts
16-Dec-17 18:31 33.823356 -116.507120 179 428ft 0kts

Navigation Log

Ident Type
1. KSNA Airport
2. KPSP Airport